createdAt,value
2018-12-04T03:14:25.945Z,0.00
2018-12-04T03:15:25.984Z,0.00
2018-12-04T03:16:25.903Z,0.00
2018-12-04T03:17:25.873Z,0.00
2018-12-04T03:18:25.868Z,0.00
2018-12-04T03:19:25.871Z,0.00
2018-12-04T03:20:25.854Z,0.00
2018-12-04T03:21:25.850Z,0.00
2018-12-04T03:22:25.831Z,0.00
2018-12-04T03:23:25.829Z,0.00
2018-12-04T03:24:25.836Z,0.00
2018-12-04T03:25:25.819Z,0.00
2018-12-04T03:26:25.812Z,0.00
2018-12-04T03:27:25.803Z,0.00
2018-12-04T03:28:25.798Z,0.00
2018-12-04T03:29:25.795Z,0.00
2018-12-04T03:30:25.782Z,0.00
2018-12-04T03:31:25.784Z,0.00
2018-12-04T03:32:25.799Z,0.00
2018-12-04T03:33:25.770Z,0.00
2018-12-04T03:34:25.792Z,0.00
2018-12-04T03:35:25.764Z,0.00
2018-12-04T03:36:25.752Z,0.00
2018-12-04T03:37:25.754Z,0.00
2018-12-04T03:38:25.750Z,0.00
2018-12-04T03:39:25.735Z,0.00
2018-12-04T03:40:25.735Z,0.00
2018-12-04T03:41:25.724Z,0.00
2018-12-04T03:42:25.737Z,0.00
2018-12-04T03:43:25.715Z,0.00
2018-12-04T03:44:25.716Z,0.00
2018-12-04T03:45:25.715Z,0.00
2018-12-04T03:46:25.700Z,0.00
2018-12-04T03:47:25.692Z,0.00
2018-12-04T03:48:25.695Z,0.00
2018-12-04T03:49:25.689Z,0.00
2018-12-04T03:50:25.676Z,0.00
2018-12-04T03:51:25.673Z,0.00
2018-12-04T03:52:25.672Z,0.00
2018-12-04T03:53:25.679Z,0.00
2018-12-04T03:54:25.661Z,0.00
2018-12-04T03:55:25.663Z,0.00
2018-12-04T03:56:25.658Z,0.00
2018-12-04T03:57:25.671Z,0.00
2018-12-04T03:58:25.646Z,0.00
2018-12-04T03:59:25.650Z,0.00
2018-12-04T04:00:25.650Z,0.00
2018-12-04T04:01:25.627Z,0.00
2018-12-04T04:02:25.628Z,0.00
2018-12-04T04:03:25.610Z,0.00
2018-12-04T04:04:25.660Z,0.00
2018-12-04T04:05:25.601Z,0.00
2018-12-04T04:06:25.613Z,0.00
2018-12-04T04:07:25.595Z,0.00
2018-12-04T04:08:25.603Z,0.00
2018-12-04T04:09:25.583Z,0.00
2018-12-04T04:10:25.581Z,0.00
2018-12-04T04:11:25.577Z,0.00
2018-12-04T04:12:25.569Z,0.00
2018-12-04T04:13:25.565Z,0.00
2018-12-04T04:14:25.564Z,0.00
2018-12-04T04:15:25.556Z,0.00
2018-12-04T04:16:25.548Z,0.00
2018-12-04T04:17:25.547Z,0.00
2018-12-04T04:18:25.549Z,0.00
2018-12-04T04:19:25.541Z,0.00
2018-12-04T04:20:25.535Z,0.00
2018-12-04T04:21:25.527Z,0.00
2018-12-04T04:22:25.533Z,0.00
2018-12-04T04:23:25.514Z,0.00
2018-12-04T04:24:25.505Z,0.00
2018-12-04T04:25:25.511Z,0.00
2018-12-04T04:26:25.499Z,0.00
2018-12-04T04:27:25.496Z,0.00
2018-12-04T04:28:25.492Z,0.00
2018-12-04T04:29:25.486Z,0.00
2018-12-04T04:30:25.480Z,0.00
2018-12-04T04:31:25.477Z,0.00
2018-12-04T04:32:25.470Z,0.00
2018-12-04T04:33:25.468Z,0.00
2018-12-04T04:34:25.460Z,0.00
2018-12-04T04:35:25.457Z,0.00
2018-12-04T04:36:25.469Z,0.00
2018-12-04T04:37:25.445Z,0.00
2018-12-04T04:38:25.440Z,0.00
2018-12-04T04:39:25.432Z,0.00
2018-12-04T04:40:25.436Z,0.00
2018-12-04T04:41:25.431Z,0.00
2018-12-04T04:42:25.416Z,0.00
2018-12-04T04:43:25.412Z,0.00
2018-12-04T04:44:25.407Z,0.00
2018-12-04T04:45:25.402Z,0.00
2018-12-04T04:46:25.404Z,0.00
2018-12-04T04:47:25.393Z,0.00
2018-12-04T04:48:25.389Z,0.00
2018-12-04T04:49:25.391Z,0.00
2018-12-04T04:50:25.388Z,0.00
2018-12-04T04:51:25.403Z,0.00
2018-12-04T04:52:25.378Z,0.00
2018-12-04T04:53:25.367Z,0.00
2018-12-04T04:54:25.375Z,0.00
2018-12-04T04:55:25.357Z,0.00
2018-12-04T04:56:25.345Z,0.00
2018-12-04T04:57:25.346Z,0.00
2018-12-04T04:58:25.335Z,0.00
2018-12-04T04:59:25.369Z,0.00
2018-12-04T05:00:25.339Z,0.00
2018-12-04T05:01:25.323Z,0.00
2018-12-04T05:02:25.320Z,0.00
2018-12-04T05:03:25.316Z,0.00
2018-12-04T05:04:25.309Z,0.00
2018-12-04T05:05:25.336Z,0.00
2018-12-04T05:06:25.298Z,0.00
2018-12-04T05:07:25.291Z,0.00
2018-12-04T05:08:25.291Z,0.00
2018-12-04T05:09:25.291Z,0.00
2018-12-04T05:10:25.276Z,0.00
2018-12-04T05:11:25.304Z,0.00
2018-12-04T05:12:25.272Z,0.00
2018-12-04T05:13:25.266Z,0.00
2018-12-04T05:14:25.256Z,0.00
2018-12-04T05:15:25.291Z,0.00
2018-12-04T05:16:25.268Z,0.00
2018-12-04T05:17:25.253Z,0.00
2018-12-04T05:18:25.244Z,0.00
2018-12-04T05:19:25.229Z,0.00
2018-12-04T05:20:25.236Z,0.00
2018-12-04T05:21:25.275Z,0.00
2018-12-04T05:22:25.220Z,0.00
2018-12-04T05:23:25.212Z,0.00
2018-12-04T05:24:25.210Z,0.00
2018-12-04T05:25:25.199Z,0.00
2018-12-04T05:26:25.202Z,0.00
2018-12-04T05:27:25.198Z,0.00
2018-12-04T05:28:25.194Z,0.00
2018-12-04T05:29:25.179Z,0.00
2018-12-04T05:30:25.178Z,0.00
2018-12-04T05:31:25.176Z,0.00
2018-12-04T05:32:25.189Z,0.00
2018-12-04T05:33:25.162Z,0.00
2018-12-04T05:34:25.175Z,0.00
2018-12-04T05:35:25.167Z,0.00
2018-12-04T05:36:25.147Z,0.00
2018-12-04T05:37:25.137Z,0.00
2018-12-04T05:38:25.148Z,0.00
2018-12-04T05:39:25.138Z,0.00
2018-12-04T05:40:25.129Z,0.00
2018-12-04T05:41:25.120Z,0.00
2018-12-04T05:42:25.113Z,0.00
2018-12-04T05:43:25.117Z,0.00
2018-12-04T05:44:25.132Z,0.00
2018-12-04T05:45:25.094Z,0.00
2018-12-04T05:46:25.163Z,0.00
2018-12-04T05:47:25.110Z,0.00
2018-12-04T05:48:25.087Z,0.00
2018-12-04T05:49:25.079Z,0.00
2018-12-04T05:50:25.077Z,0.00
2018-12-04T05:51:25.075Z,0.00
2018-12-04T05:52:25.068Z,0.00
2018-12-04T05:53:25.064Z,0.00
2018-12-04T05:54:25.063Z,0.00
2018-12-04T05:55:25.051Z,0.00
2018-12-04T05:56:25.044Z,0.00
2018-12-04T05:57:25.035Z,0.00
2018-12-04T05:58:25.037Z,0.00
2018-12-04T05:59:25.029Z,0.00
2018-12-04T06:00:25.033Z,0.00
2018-12-04T06:01:25.019Z,0.00
2018-12-04T06:02:25.008Z,0.00
2018-12-04T06:03:25.009Z,0.00
2018-12-04T06:04:25.005Z,0.00
2018-12-04T06:05:25.019Z,0.00
2018-12-04T06:06:24.998Z,0.00
2018-12-04T06:07:24.986Z,0.00
2018-12-04T06:08:25.007Z,0.00
2018-12-04T06:09:24.978Z,0.00
2018-12-04T06:10:24.965Z,0.00
2018-12-04T06:11:24.988Z,0.00
2018-12-04T06:12:24.954Z,0.00
2018-12-04T06:13:25.031Z,0.00
2018-12-04T06:14:24.979Z,0.00
2018-12-04T06:15:24.947Z,0.00
2018-12-04T06:16:24.957Z,0.00
2018-12-04T06:17:24.945Z,0.00
2018-12-04T06:18:24.948Z,0.00
2018-12-04T06:19:24.949Z,0.00
2018-12-04T06:20:24.941Z,0.00
2018-12-04T06:21:24.908Z,0.00
2018-12-04T06:22:24.912Z,0.00
2018-12-04T06:23:24.898Z,0.00
2018-12-04T06:24:24.894Z,0.00
2018-12-04T06:25:24.889Z,0.00
2018-12-04T06:26:24.883Z,0.00
2018-12-04T06:27:24.875Z,0.00
2018-12-04T06:28:24.874Z,0.00
2018-12-04T06:29:24.889Z,0.00
2018-12-04T06:30:24.891Z,0.00
2018-12-04T06:31:24.862Z,0.00
2018-12-04T06:32:24.848Z,0.00
2018-12-04T06:33:24.858Z,0.00
2018-12-04T06:34:24.839Z,0.00
2018-12-04T06:35:24.856Z,0.00
2018-12-04T06:36:24.826Z,0.00
2018-12-04T06:37:24.824Z,0.00
2018-12-04T06:38:24.824Z,0.00
2018-12-04T06:39:24.847Z,0.00
2018-12-04T06:40:24.844Z,0.00
2018-12-04T06:41:24.808Z,0.00
2018-12-04T06:42:24.809Z,0.00
2018-12-04T06:43:24.833Z,0.00
2018-12-04T06:44:24.824Z,0.00
2018-12-04T06:45:24.909Z,4.00
2018-12-04T06:46:24.792Z,4.00
2018-12-04T06:47:24.797Z,4.00
2018-12-04T06:48:24.761Z,4.00
2018-12-04T06:49:24.785Z,8.00
2018-12-04T06:50:24.774Z,4.00
2018-12-04T06:51:24.778Z,8.00
2018-12-04T06:52:24.788Z,8.00
2018-12-04T06:53:24.783Z,8.00
2018-12-04T06:54:24.792Z,8.00
2018-12-04T06:55:24.758Z,12.00
2018-12-04T06:56:24.725Z,12.00
2018-12-04T06:57:24.719Z,8.00
2018-12-04T06:58:24.716Z,12.00
2018-12-04T06:59:24.717Z,16.00
2018-12-04T07:00:24.726Z,12.00
2018-12-04T07:01:24.722Z,16.00
2018-12-04T07:02:24.737Z,16.00
2018-12-04T07:03:24.685Z,16.00
2018-12-04T07:04:24.701Z,20.00
2018-12-04T07:05:24.668Z,20.00
2018-12-04T07:06:24.659Z,24.00
2018-12-04T07:07:24.661Z,24.00
2018-12-04T07:08:24.702Z,28.00
2018-12-04T07:09:24.678Z,28.00
2018-12-04T07:10:24.659Z,32.00
2018-12-04T07:11:24.633Z,40.00
2018-12-04T07:12:24.623Z,44.00
2018-12-04T07:13:24.625Z,56.00
2018-12-04T07:14:24.616Z,56.00
2018-12-04T07:15:24.608Z,56.00
2018-12-04T07:16:24.621Z,56.00
2018-12-04T07:17:24.599Z,56.00
2018-12-04T07:18:24.594Z,60.00
2018-12-04T07:19:24.594Z,60.00
2018-12-04T07:20:24.584Z,60.00
2018-12-04T07:21:24.583Z,64.00
2018-12-04T07:22:24.576Z,64.00
2018-12-04T07:23:24.574Z,68.00
2018-12-04T07:24:24.560Z,76.00
2018-12-04T07:25:24.564Z,80.00
2018-12-04T07:26:24.549Z,84.00
2018-12-04T07:27:24.549Z,92.00
2018-12-04T07:28:24.542Z,96.00
2018-12-04T07:29:24.534Z,100.00
2018-12-04T07:30:24.529Z,108.00
2018-12-04T07:31:24.531Z,120.00
2018-12-04T07:32:24.530Z,136.00
2018-12-04T07:33:24.516Z,152.00
2018-12-04T07:34:24.523Z,184.00
2018-12-04T07:35:24.514Z,200.00
2018-12-04T07:36:24.512Z,228.00
2018-12-04T07:37:24.486Z,252.00
2018-12-04T07:38:24.487Z,272.00
2018-12-04T07:39:24.481Z,284.00
2018-12-04T07:40:24.476Z,300.00
2018-12-04T07:41:24.468Z,308.00
2018-12-04T07:42:24.463Z,316.00
2018-12-04T07:43:24.474Z,332.00
2018-12-04T07:44:24.450Z,344.00
2018-12-04T07:45:24.453Z,344.00
2018-12-04T07:46:24.433Z,368.00
2018-12-04T07:47:24.432Z,372.00
2018-12-04T07:48:24.431Z,376.00
2018-12-04T07:49:24.422Z,392.00
2018-12-04T07:50:24.422Z,384.00
2018-12-04T07:51:24.424Z,388.00
2018-12-04T07:52:24.404Z,392.00
2018-12-04T07:53:24.398Z,400.00
2018-12-04T07:54:24.389Z,400.00
2018-12-04T07:55:24.388Z,412.00
2018-12-04T07:56:24.385Z,424.00
2018-12-04T07:57:24.373Z,432.00
2018-12-04T07:58:24.389Z,436.00
2018-12-04T07:59:24.375Z,432.00
2018-12-04T08:00:24.357Z,456.00
2018-12-04T08:01:24.355Z,476.00
2018-12-04T08:02:24.349Z,504.00
2018-12-04T08:03:24.342Z,548.00
2018-12-04T08:04:24.363Z,520.00
2018-12-04T08:05:24.327Z,508.00
2018-12-04T08:06:24.330Z,504.00
2018-12-04T08:07:24.320Z,524.00
2018-12-04T08:08:24.346Z,524.00
2018-12-04T08:09:24.355Z,556.00
2018-12-04T08:10:24.309Z,568.00
2018-12-04T08:11:24.309Z,600.00
2018-12-04T08:12:24.286Z,656.00
2018-12-04T08:13:24.283Z,672.00
2018-12-04T08:14:24.282Z,692.00
2018-12-04T08:15:24.276Z,720.00
2018-12-04T08:16:24.282Z,696.00
2018-12-04T08:17:24.273Z,672.00
2018-12-04T08:18:24.254Z,688.00
2018-12-04T08:19:24.248Z,704.00
2018-12-04T08:20:24.242Z,696.00
2018-12-04T08:21:24.248Z,708.00
2018-12-04T08:22:24.246Z,708.00
2018-12-04T08:23:24.252Z,696.00
2018-12-04T08:24:24.226Z,676.00
2018-12-04T08:25:24.217Z,684.00
2018-12-04T08:26:24.235Z,664.00
2018-12-04T08:27:24.208Z,660.00
2018-12-04T08:28:24.205Z,660.00
2018-12-04T08:29:24.205Z,668.00
2018-12-04T08:30:24.190Z,664.00
2018-12-04T08:31:24.195Z,644.00
2018-12-04T08:32:24.201Z,648.00
2018-12-04T08:33:24.176Z,684.00
2018-12-04T08:34:24.185Z,724.00
2018-12-04T08:35:24.174Z,792.00
2018-12-04T08:36:24.187Z,764.00
2018-12-04T08:37:24.152Z,748.00
2018-12-04T08:38:24.143Z,796.00
2018-12-04T08:39:24.154Z,848.00
2018-12-04T08:40:24.145Z,776.00
2018-12-04T08:41:24.180Z,756.00
2018-12-04T08:42:24.128Z,716.00
2018-12-04T08:43:24.123Z,724.00
2018-12-04T08:44:24.114Z,736.00
2018-12-04T08:45:24.120Z,732.00
2018-12-04T08:46:24.113Z,744.00
2018-12-04T08:47:24.111Z,692.00
2018-12-04T08:48:24.092Z,676.00
2018-12-04T08:49:24.087Z,668.00
2018-12-04T08:50:24.086Z,644.00
2018-12-04T08:51:24.075Z,656.00
2018-12-04T08:52:24.075Z,708.00
2018-12-04T08:53:24.076Z,776.00
2018-12-04T08:54:24.067Z,744.00
2018-12-04T08:55:24.100Z,752.00
2018-12-04T08:56:24.073Z,796.00
2018-12-04T08:57:24.049Z,700.00
2018-12-04T08:58:24.076Z,712.00
2018-12-04T08:59:24.047Z,728.00
2018-12-04T09:00:24.039Z,720.00
2018-12-04T09:01:24.032Z,724.00
2018-12-04T09:02:24.023Z,696.00
2018-12-04T09:03:24.017Z,704.00
2018-12-04T09:04:24.029Z,688.00
2018-12-04T09:05:24.010Z,716.00
2018-12-04T09:06:24.006Z,756.00
2018-12-04T09:07:24.002Z,728.00
2018-12-04T09:08:23.994Z,760.00
2018-12-04T09:09:23.993Z,740.00
2018-12-04T09:10:24.003Z,740.00
2018-12-04T09:11:23.990Z,772.00
2018-12-04T09:12:23.980Z,744.00
2018-12-04T09:13:23.973Z,736.00
2018-12-04T09:14:23.965Z,680.00
2018-12-04T09:15:23.969Z,640.00
2018-12-04T09:16:23.953Z,596.00
2018-12-04T09:17:33.592Z,552.00
2018-12-04T09:19:26.437Z,528.00
2018-12-04T09:20:26.016Z,508.00
2018-12-04T09:22:10.715Z,492.00
2018-12-04T09:23:18.325Z,520.00
2018-12-04T09:24:19.345Z,536.00
2018-12-04T09:26:14.156Z,580.00
2018-12-04T09:27:05.687Z,608.00
2018-12-04T09:28:04.061Z,632.00
2018-12-04T09:29:04.063Z,684.00
2018-12-04T09:30:04.052Z,732.00
2018-12-04T09:31:04.052Z,832.00
2018-12-04T09:32:04.043Z,832.00
2018-12-04T09:33:04.027Z,812.00
2018-12-04T09:34:04.048Z,760.00
2018-12-04T09:35:04.037Z,792.00
2018-12-04T09:36:04.028Z,764.00
2018-12-04T09:37:04.019Z,764.00
2018-12-04T09:38:04.012Z,728.00
2018-12-04T09:39:04.001Z,712.00
2018-12-04T09:40:03.999Z,700.00
2018-12-04T09:41:04.000Z,692.00
2018-12-04T09:42:03.986Z,740.00
2018-12-04T09:43:04.258Z,652.00
2018-12-04T09:44:03.979Z,612.00
2018-12-04T09:45:03.974Z,580.00
2018-12-04T09:46:03.972Z,496.00
2018-12-04T09:47:03.964Z,468.00
2018-12-04T09:48:03.964Z,416.00
2018-12-04T09:49:03.962Z,368.00
2018-12-04T09:50:03.949Z,320.00
2018-12-04T09:51:03.953Z,300.00
2018-12-04T09:52:03.962Z,292.00
2018-12-04T09:53:03.933Z,268.00
2018-12-04T09:54:03.934Z,268.00
2018-12-04T09:55:03.923Z,268.00
2018-12-04T09:56:03.936Z,288.00
2018-12-04T09:57:03.918Z,300.00
2018-12-04T09:58:03.915Z,316.00
2018-12-04T09:59:03.929Z,332.00
2018-12-04T10:00:03.906Z,352.00
2018-12-04T10:01:03.915Z,388.00
2018-12-04T10:02:03.895Z,452.00
2018-12-04T10:03:03.894Z,492.00
2018-12-04T10:04:03.890Z,520.00
2018-12-04T10:05:03.889Z,548.00
2018-12-04T10:06:03.880Z,568.00
2018-12-04T10:07:03.865Z,584.00
2018-12-04T10:08:03.860Z,592.00
2018-12-04T10:09:03.864Z,616.00
2018-12-04T10:10:03.848Z,632.00
2018-12-04T10:11:03.860Z,632.00
2018-12-04T10:12:03.838Z,648.00
2018-12-04T10:13:03.835Z,640.00
2018-12-04T10:14:03.829Z,624.00
2018-12-04T10:15:03.855Z,616.00
2018-12-04T10:16:03.854Z,612.00
2018-12-04T10:17:11.460Z,632.00
2018-12-04T10:18:57.228Z,700.00
2018-12-04T10:19:57.212Z,728.00
2018-12-04T10:20:57.202Z,764.00
2018-12-04T10:21:57.200Z,776.00
2018-12-04T10:22:57.204Z,760.00
2018-12-04T10:23:57.215Z,800.00
2018-12-04T10:24:57.179Z,776.00
2018-12-04T10:25:57.178Z,744.00
2018-12-04T10:26:57.174Z,744.00
2018-12-04T10:27:57.166Z,732.00
2018-12-04T10:28:57.172Z,728.00
2018-12-04T10:29:57.165Z,680.00
2018-12-04T10:30:57.157Z,672.00
2018-12-04T10:31:57.152Z,664.00
2018-12-04T10:32:57.144Z,676.00
2018-12-04T10:33:57.141Z,672.00
2018-12-04T10:34:57.139Z,704.00
2018-12-04T10:35:57.128Z,672.00
2018-12-04T10:36:57.130Z,616.00
2018-12-04T10:37:57.133Z,628.00
2018-12-04T10:38:57.115Z,680.00
2018-12-04T10:39:57.107Z,708.00
2018-12-04T10:40:57.101Z,700.00
2018-12-04T10:41:57.106Z,728.00
2018-12-04T10:42:57.094Z,716.00
2018-12-04T10:43:57.094Z,736.00
2018-12-04T10:44:57.088Z,712.00
2018-12-04T10:45:57.108Z,668.00
2018-12-04T10:46:57.101Z,652.00
2018-12-04T10:47:57.077Z,640.00
2018-12-04T10:48:57.073Z,600.00
2018-12-04T10:49:57.067Z,544.00
2018-12-04T10:50:57.060Z,520.00
2018-12-04T10:51:57.053Z,520.00
2018-12-04T10:52:57.041Z,480.00
2018-12-04T10:53:57.044Z,452.00
2018-12-04T10:54:57.048Z,464.00
2018-12-04T10:55:57.046Z,480.00
2018-12-04T10:56:57.030Z,508.00
2018-12-04T10:57:57.028Z,540.00
2018-12-04T10:58:57.024Z,564.00
2018-12-04T10:59:57.025Z,552.00
2018-12-04T11:00:57.027Z,560.00
2018-12-04T11:01:57.006Z,548.00
2018-12-04T11:02:57.020Z,520.00
2018-12-04T11:03:56.995Z,496.00
2018-12-04T11:04:56.990Z,472.00
2018-12-04T11:05:56.983Z,452.00
2018-12-04T11:06:56.990Z,444.00
2018-12-04T11:07:56.990Z,416.00
2018-12-04T11:08:56.987Z,384.00
2018-12-04T11:09:56.966Z,364.00
2018-12-04T11:10:56.960Z,340.00
2018-12-04T11:11:56.963Z,316.00
2018-12-04T11:12:56.954Z,312.00
2018-12-04T11:13:56.943Z,300.00
2018-12-04T11:14:56.953Z,312.00
2018-12-04T11:15:56.944Z,324.00
2018-12-04T11:16:56.930Z,348.00
2018-12-04T11:17:56.936Z,356.00
2018-12-04T11:18:56.926Z,356.00
2018-12-04T11:19:56.920Z,360.00
2018-12-04T11:20:56.918Z,360.00
2018-12-04T11:21:56.919Z,360.00
2018-12-04T11:22:56.914Z,372.00
2018-12-04T11:23:56.916Z,392.00
2018-12-04T11:24:56.896Z,388.00
2018-12-04T11:25:56.886Z,376.00
2018-12-04T11:26:56.898Z,368.00
2018-12-04T11:27:56.878Z,368.00
2018-12-04T11:28:56.876Z,376.00
2018-12-04T11:29:56.872Z,372.00
2018-12-04T11:30:56.863Z,352.00
2018-12-04T11:31:56.862Z,344.00
2018-12-04T11:32:56.862Z,352.00
2018-12-04T11:33:56.849Z,356.00
2018-12-04T11:34:56.850Z,356.00
2018-12-04T11:35:56.842Z,348.00
2018-12-04T11:36:56.843Z,344.00
2018-12-04T11:37:56.841Z,332.00
2018-12-04T11:38:56.827Z,328.00
2018-12-04T11:39:56.818Z,316.00
2018-12-04T11:40:56.815Z,296.00
2018-12-04T11:41:56.821Z,276.00
2018-12-04T11:42:56.812Z,260.00
2018-12-04T11:43:56.807Z,268.00
2018-12-04T11:44:56.821Z,288.00
2018-12-04T11:45:56.803Z,316.00
2018-12-04T11:46:56.806Z,336.00
2018-12-04T11:47:56.782Z,356.00
2018-12-04T11:48:56.786Z,372.00
2018-12-04T11:49:56.777Z,388.00
2018-12-04T11:51:05.416Z,420.00
2018-12-04T11:52:50.171Z,420.00
